Observations for NEW YORK JF KENNEDY, NY (JFK)

KJFK 201952Z 07009KT 2SM R04R/4500VP6000FT -SN BR FEW000 BKN009 OVC034 M02/M03 A3046 RMK AO2 SFC VIS 2 1/2 SLP315 BR FEW000 P0001 T10221033 
KJFK 201948Z 08007KT 2SM -SN BR FEW000 BKN009 OVC034 M02/M03 A3047 RMK AO2 SFC VIS 2 1/2 BR FEW000 P0001 VISNO W $
KJFK 201851Z 11009KT 1 3/4SM R04R/6000VP6000FT -SN BR FEW000 BKN008 OVC024 M03/M04 A3050 RMK AO2 TWR VIS 2 SLP327 SN BR FEW000 P0004 T10281039  
KJFK 201812Z 10007KT 1 1/2SM R04R/2400V5500FT -SN BR FEW000 BKN008 OVC022 M03/M03 A3053 RMK AO2 PRESFR SN FEW000 P0002 T10281033
KJFK 201751Z 11006KT 3/4SM R04R/2400V2800FT -SN BR SCT000 OVC007 M03/M03 A3055 RMK AO2 TWR VIS 1 SLP345 SN SCT000 SNINCR 1/1 931006 4/001 P0006 60006 T10281033 11017 21033 58018   
KJFK 201713Z 13006KT 1/2SM R04R/2400V3500FT -SN BR SCT000 BKN009 OVC021 M03/M05A3058 RMK AO2 SFC VIS 3/4 SN SCT000 P0001 T10331050
KJFK 201700Z 16007KT 1 1/2SM R04R/3500VP6000FT -SN SCT000 BKN013 OVC027 M03/M07A3058 RMK AO2 PRESFR SN SCT000 P0000 T10281067
KJFK 201651Z 17004KT 2SM -SN FEW000 BKN022 OVC046 M02/M09 A3059 RMK AO2 SFC VIS 2 1/2 SNB29 SLP357 SN FEW000 P0000 T10221089
KJFK 201645Z 14004KT 4SM -SN BKN028 OVC055 M02/M09 A3060 RMK AO2 SNB29 P0000
KJFK 201551Z 00000KT 10SM BKN075 OVC090 M02/M11 A3061 RMK AO2 SLP365 T10171106  
KJFK 201451Z 05005KT 10SM OVC100 M02/M11 A3061 RMK AO2 SLP363 T10221106 50001   
KJFK 201351Z 09006KT 10SM OVC130 M02/M11 A3063 RMK AO2 SLP372 T10221106 
KJFK 201251Z 06006KT 10SM OVC140 M03/M12 A3063 RMK AO2 SLP372 T10281117 
KJFK 201151Z 07006KT 10SM OVC170 M03/M11 A3060 RMK AO2 SLP362 T10281111 11017 21028 58004   
KJFK 201051Z 06007KT 10SM OVC180 M03/M11 A3060 RMK AO2 SLP363 T10281111 
KJFK 200951Z 05005KT 10SM OVC200 M03/M11 A3062 RMK AO2 SLP368 T10281111 
KJFK 200851Z 02004KT 10SM OVC210 M02/M12 A3062 RMK AO2 SLP366 T10221117 50002   
KJFK 200751Z 01004KT 10SM OVC220 M02/M13 A3062 RMK AO2 SLP368 T10221128 
KJFK 200651Z 36003KT 10SM OVC230 M02/M13 A3061 RMK AO2 SLP364 T10221133 
KJFK 200551Z 36007KT 10SM OVC230 M02/M14 A3061 RMK AO2 SLP365 T10171144 10006 21017 53000   
KJFK 200451Z 35009KT 10SM OVC240 M02/M14 A3060 RMK AO2 SLP360 T10171144 400221050   
KJFK 200351Z 33009KT 10SM OVC250 M01/M13 A3061 RMK AO2 SLP364 T10061128 
KJFK 200251Z 31010KT 10SM OVC250 00/M13 A3061 RMK AO2 SLP364 T00001133 51005
KJFK 200151Z 32009KT 10SM OVC250 00/M13 A3061 RMK AO2 SLP363 T00001133  
KJFK 200051Z 30011G19KT 10SM BKN250 01/M13 A3060 RMK AO2 SLP362 T00061133   
KJFK 192351Z 31010KT 10SM BKN250 01/M14 A3059 RMK AO2 SLP359 T00061139 10022 20000 53016
KJFK 192251Z 32009KT 10SM BKN250 01/M14 A3055 RMK AO2 SLP346 T00061144  
KJFK 192151Z 32012KT 10SM BKN250 01/M14 A3053 RMK AO2 SLP339 T00111139  
KJFK 192051Z 32009KT 10SM BKN260 02/M14 A3055 RMK AO2 SLP343 T00221144 56010
KJFK 191951Z 30013KT 10SM BKN260 02/M13 A3055 RMK AO2 SLP344 T00221133